Terminal Aerodrome Forecast
Issued by NWS Pocatello, ID

Home | Current Version | Previous Version | Text Only | Print | Product List | Glossary On
Versions: 1 2 3 4 5 6 7 8 9 10 11 12
548
FTUS45 KPIH 271120
TAFBYI
TAF
KBYI 271120Z 2712/2812 VRB06KT P6SM SKC
     FM271900 30008KT P6SM SKC
     FM280200 VRB06KT P6SM SKC=

USA.gov is the U.S. government's official web portal to all federal, state and local government web resources and services.